sensor_id;sensor_type;location;lat;lon;timestamp;pressure;altitude;pressure_sealevel;temperature;humidity
51849;BME280;38952;51.090;-1.832;2023-07-31T00:01:14;99711.53;;;15.58;nan
51849;BME280;38952;51.090;-1.832;2023-07-31T00:03:40;99703.78;;;15.60;nan
51849;BME280;38952;51.090;-1.832;2023-07-31T00:06:05;99703.28;;;15.58;nan
51849;BME280;38952;51.090;-1.832;2023-07-31T00:08:31;99698.28;;;15.60;nan
51849;BME280;38952;51.090;-1.832;2023-07-31T00:10:56;99701.53;;;15.62;nan
51849;BME280;38952;51.090;-1.832;2023-07-31T00:13:21;99710.31;;;15.64;nan
51849;BME280;38952;51.090;-1.832;2023-07-31T00:15:47;99709.66;;;15.67;nan
51849;BME280;38952;51.090;-1.832;2023-07-31T00:18:12;99695.56;;;15.68;nan
51849;BME280;38952;51.090;-1.832;2023-07-31T00:20:38;99694.72;;;15.68;nan
51849;BME280;38952;51.090;-1.832;2023-07-31T00:23:03;99691.53;;;15.75;nan
51849;BME280;38952;51.090;-1.832;2023-07-31T00:25:29;99694.28;;;15.75;nan
51849;BME280;38952;51.090;-1.832;2023-07-31T00:27:54;99681.53;;;15.79;nan
51849;BME280;38952;51.090;-1.832;2023-07-31T00:30:20;99681.69;;;15.82;nan
51849;BME280;38952;51.090;-1.832;2023-07-31T00:32:45;99677.31;;;15.81;nan
51849;BME280;38952;51.090;-1.832;2023-07-31T00:35:10;99675.84;;;15.84;nan
51849;BME280;38952;51.090;-1.832;2023-07-31T00:37:36;99665.81;;;15.88;nan
51849;BME280;38952;51.090;-1.832;2023-07-31T00:40:01;99658.84;;;15.91;nan
51849;BME280;38952;51.090;-1.832;2023-07-31T00:42:28;99656.75;;;15.96;nan
51849;BME280;38952;51.090;-1.832;2023-07-31T00:44:54;99647.00;;;15.90;nan
51849;BME280;38952;51.090;-1.832;2023-07-31T00:47:19;99660.19;;;16.02;nan
51849;BME280;38952;51.090;-1.832;2023-07-31T00:49:48;99637.78;;;15.95;nan
51849;BME280;38952;51.090;-1.832;2023-07-31T00:52:21;99654.81;;;16.05;nan
51849;BME280;38952;51.090;-1.832;2023-07-31T00:54:48;99622.19;;;15.99;nan
51849;BME280;38952;51.090;-1.832;2023-07-31T00:57:14;99620.72;;;15.93;nan
51849;BME280;38952;51.090;-1.832;2023-07-31T00:59:40;99638.47;;;16.09;nan
51849;BME280;38952;51.090;-1.832;2023-07-31T01:02:05;99668.63;;;16.05;nan
51849;BME280;38952;51.090;-1.832;2023-07-31T01:04:33;99642.81;;;16.10;nan
51849;BME280;38952;51.090;-1.832;2023-07-31T01:09:37;99617.00;;;16.06;nan
51849;BME280;38952;51.090;-1.832;2023-07-31T01:12:06;99618.97;;;16.05;nan
51849;BME280;38952;51.090;-1.832;2023-07-31T01:14:35;99622.72;;;16.10;nan
51849;BME280;38952;51.090;-1.832;2023-07-31T01:17:03;99613.13;;;16.07;nan
51849;BME280;38952;51.090;-1.832;2023-07-31T01:19:28;99618.66;;;16.07;nan
51849;BME280;38952;51.090;-1.832;2023-07-31T01:22:24;99614.78;;;16.08;nan
51849;BME280;38952;51.090;-1.832;2023-07-31T01:28:07;99587.34;;;16.03;nan
51849;BME280;38952;51.090;-1.832;2023-07-31T01:30:38;99594.16;;;16.05;nan
51849;BME280;38952;51.090;-1.832;2023-07-31T01:33:05;99602.28;;;16.02;nan
51849;BME280;38952;51.090;-1.832;2023-07-31T01:35:36;99577.94;;;15.95;nan
51849;BME280;38952;51.090;-1.832;2023-07-31T01:38:02;99593.81;;;15.98;nan
51849;BME280;38952;51.090;-1.832;2023-07-31T01:40:29;99590.25;;;15.98;nan
51849;BME280;38952;51.090;-1.832;2023-07-31T01:42:54;99583.13;;;15.97;nan
51849;BME280;38952;51.090;-1.832;2023-07-31T01:45:20;99582.00;;;15.98;nan
51849;BME280;38952;51.090;-1.832;2023-07-31T01:47:48;99587.19;;;15.99;nan
51849;BME280;38952;51.090;-1.832;2023-07-31T01:50:13;99596.75;;;16.02;nan
51849;BME280;38952;51.090;-1.832;2023-07-31T01:52:39;99596.44;;;16.03;nan
51849;BME280;38952;51.090;-1.832;2023-07-31T01:55:04;99561.84;;;15.88;nan
51849;BME280;38952;51.090;-1.832;2023-07-31T01:57:30;99565.59;;;15.93;nan
51849;BME280;38952;51.090;-1.832;2023-07-31T01:59:55;99574.50;;;15.90;nan
51849;BME280;38952;51.090;-1.832;2023-07-31T02:02:21;99573.38;;;15.91;nan
51849;BME280;38952;51.090;-1.832;2023-07-31T02:04:48;99577.13;;;15.95;nan
51849;BME280;38952;51.090;-1.832;2023-07-31T02:07:16;99559.94;;;15.89;nan
51849;BME280;38952;51.090;-1.832;2023-07-31T02:09:41;99573.88;;;15.93;nan
51849;BME280;38952;51.090;-1.832;2023-07-31T02:12:07;99554.09;;;15.91;nan
51849;BME280;38952;51.090;-1.832;2023-07-31T02:14:35;99551.34;;;15.91;nan
51849;BME280;38952;51.090;-1.832;2023-07-31T02:17:01;99545.81;;;15.82;nan
51849;BME280;38952;51.090;-1.832;2023-07-31T02:19:26;99538.34;;;15.91;nan
51849;BME280;38952;51.090;-1.832;2023-07-31T02:21:52;99537.53;;;15.91;nan
51849;BME280;38952;51.090;-1.832;2023-07-31T02:24:17;99545.97;;;16.03;nan
51849;BME280;38952;51.090;-1.832;2023-07-31T02:26:43;99545.00;;;15.99;nan
51849;BME280;38952;51.090;-1.832;2023-07-31T02:29:08;99523.59;;;15.96;nan
51849;BME280;38952;51.090;-1.832;2023-07-31T02:31:34;99526.84;;;15.98;nan
51849;BME280;38952;51.090;-1.832;2023-07-31T02:34:01;99547.94;;;16.11;nan
51849;BME280;38952;51.090;-1.832;2023-07-31T02:36:27;99528.78;;;16.06;nan
51849;BME280;38952;51.090;-1.832;2023-07-31T02:38:52;99529.75;;;16.10;nan
51849;BME280;38952;51.090;-1.832;2023-07-31T02:41:18;99522.63;;;16.09;nan
51849;BME280;38952;51.090;-1.832;2023-07-31T02:43:43;99515.16;;;16.01;nan
51849;BME280;38952;51.090;-1.832;2023-07-31T02:46:09;99518.41;;;16.03;nan
51849;BME280;38952;51.090;-1.832;2023-07-31T02:48:42;99503.00;;;16.02;nan
51849;BME280;38952;51.090;-1.832;2023-07-31T02:51:07;99529.44;;;16.03;nan
51849;BME280;38952;51.090;-1.832;2023-07-31T02:53:35;99506.38;;;15.99;nan
51849;BME280;38952;51.090;-1.832;2023-07-31T02:56:03;99488.91;;;15.95;nan
51849;BME280;38952;51.090;-1.832;2023-07-31T02:58:29;99503.63;;;16.08;nan
51849;BME280;38952;51.090;-1.832;2023-07-31T03:00:54;99494.09;;;16.05;nan
51849;BME280;38952;51.090;-1.832;2023-07-31T03:03:20;99488.91;;;16.03;nan
51849;BME280;38952;51.090;-1.832;2023-07-31T03:05:47;99466.53;;;15.87;nan
51849;BME280;38952;51.090;-1.832;2023-07-31T03:08:13;99463.25;;;15.94;nan
51849;BME280;38952;51.090;-1.832;2023-07-31T03:10:41;99510.63;;;16.05;nan
51849;BME280;38952;51.090;-1.832;2023-07-31T03:13:07;99504.47;;;16.08;nan
51849;BME280;38952;51.090;-1.832;2023-07-31T03:15:32;99490.50;;;15.96;nan
51849;BME280;38952;51.090;-1.832;2023-07-31T03:18:00;99498.63;;;16.01;nan
51849;BME280;38952;51.090;-1.832;2023-07-31T03:20:26;99493.44;;;16.08;nan
51849;BME280;38952;51.090;-1.832;2023-07-31T03:22:51;99471.69;;;15.98;nan
51849;BME280;38952;51.090;-1.832;2023-07-31T03:25:17;99483.06;;;16.05;nan
51849;BME280;38952;51.090;-1.832;2023-07-31T03:27:42;99478.34;;;16.05;nan
51849;BME280;38952;51.090;-1.832;2023-07-31T03:30:10;99482.72;;;16.07;nan
51849;BME280;38952;51.090;-1.832;2023-07-31T03:32:38;99492.44;;;16.04;nan
51849;BME280;38952;51.090;-1.832;2023-07-31T03:35:03;99467.16;;;16.02;nan
51849;BME280;38952;51.090;-1.832;2023-07-31T03:37:30;99485.63;;;16.10;nan
51849;BME280;38952;51.090;-1.832;2023-07-31T03:39:56;99485.16;;;16.17;nan
51849;BME280;38952;51.090;-1.832;2023-07-31T03:42:26;99478.34;;;16.05;nan
51849;BME280;38952;51.090;-1.832;2023-07-31T03:44:51;99477.84;;;16.12;nan
51849;BME280;38952;51.090;-1.832;2023-07-31T03:47:17;99476.56;;;16.10;nan
51849;BME280;38952;51.090;-1.832;2023-07-31T03:49:42;99468.09;;;16.06;nan
51849;BME280;38952;51.090;-1.832;2023-07-31T03:52:08;99465.84;;;16.08;nan
51849;BME280;38952;51.090;-1.832;2023-07-31T03:54:33;99463.25;;;16.03;nan
51849;BME280;38952;51.090;-1.832;2023-07-31T03:56:59;99455.97;;;15.98;nan
51849;BME280;38952;51.090;-1.832;2023-07-31T03:59:24;99455.97;;;15.98;nan
51849;BME280;38952;51.090;-1.832;2023-07-31T04:01:50;99465.84;;;16.08;nan
51849;BME280;38952;51.090;-1.832;2023-07-31T04:04:15;99465.34;;;16.06;nan
51849;BME280;38952;51.090;-1.832;2023-07-31T04:06:40;99471.19;;;16.04;nan
51849;BME280;38952;51.090;-1.832;2023-07-31T04:09:06;99461.00;;;16.05;nan
51849;BME280;38952;51.090;-1.832;2023-07-31T04:11:31;99460.81;;;16.01;nan
51849;BME280;38952;51.090;-1.832;2023-07-31T04:13:57;99468.94;;;16.07;nan
51849;BME280;38952;51.090;-1.832;2023-07-31T04:16:22;99454.50;;;16.01;nan
51849;BME280;38952;51.090;-1.832;2023-07-31T04:18:50;99481.75;;;16.11;nan
51849;BME280;38952;51.090;-1.832;2023-07-31T04:21:16;99443.94;;;16.03;nan
51849;BME280;38952;51.090;-1.832;2023-07-31T04:23:51;99449.47;;;16.03;nan
51849;BME280;38952;51.090;-1.832;2023-07-31T04:26:24;99449.97;;;16.05;nan
51849;BME280;38952;51.090;-1.832;2023-07-31T04:28:51;99461.00;;;16.05;nan
51849;BME280;38952;51.090;-1.832;2023-07-31T04:31:19;99469.75;;;16.07;nan
51849;BME280;38952;51.090;-1.832;2023-07-31T04:33:44;99474.13;;;16.08;nan
51849;BME280;38952;51.090;-1.832;2023-07-31T04:36:10;99474.44;;;16.15;nan
51849;BME280;38952;51.090;-1.832;2023-07-31T04:38:38;99454.50;;;16.01;nan
51849;BME280;38952;51.090;-1.832;2023-07-31T04:41:18;99443.81;;;15.99;nan
51849;BME280;38952;51.090;-1.832;2023-07-31T04:43:44;99482.72;;;16.15;nan
51849;BME280;38952;51.090;-1.832;2023-07-31T04:46:18;99450.09;;;16.09;nan
51849;BME280;38952;51.090;-1.832;2023-07-31T04:48:43;99459.81;;;16.15;nan
51849;BME280;38952;51.090;-1.832;2023-07-31T04:51:09;99459.50;;;16.16;nan
51849;BME280;38952;51.090;-1.832;2023-07-31T04:53:35;99441.50;;;16.10;nan
51849;BME280;38952;51.090;-1.832;2023-07-31T04:56:01;99440.53;;;16.06;nan
51849;BME280;38952;51.090;-1.832;2023-07-31T04:58:26;99471.50;;;16.20;nan
51849;BME280;38952;51.090;-1.832;2023-07-31T05:00:51;99468.75;;;16.20;nan
51849;BME280;38952;51.090;-1.832;2023-07-31T05:03:20;99468.09;;;16.23;nan
51849;BME280;38952;51.090;-1.832;2023-07-31T05:05:48;99472.16;;;16.26;nan
51849;BME280;38952;51.090;-1.832;2023-07-31T05:08:13;99453.50;;;16.14;nan
51849;BME280;38952;51.090;-1.832;2023-07-31T05:10:43;99451.22;;;16.16;nan
51849;BME280;38952;51.090;-1.832;2023-07-31T05:13:08;99465.00;;;16.25;nan
51849;BME280;38952;51.090;-1.832;2023-07-31T05:15:36;99441.66;;;16.22;nan
51849;BME280;38952;51.090;-1.832;2023-07-31T05:18:01;99439.22;;;16.30;nan
51849;BME280;38952;51.090;-1.832;2023-07-31T05:20:27;99438.38;;;16.29;nan
51849;BME280;38952;51.090;-1.832;2023-07-31T05:22:53;99459.31;;;16.39;nan
51849;BME280;38952;51.090;-1.832;2023-07-31T05:25:18;99423.78;;;16.29;nan
51849;BME280;38952;51.090;-1.832;2023-07-31T05:27:43;99444.53;;;16.35;nan
51849;BME280;38952;51.090;-1.832;2023-07-31T05:30:09;99431.06;;;16.42;nan
51849;BME280;38952;51.090;-1.832;2023-07-31T05:32:37;99420.00;;;16.42;nan
51849;BME280;38952;51.090;-1.832;2023-07-31T05:35:02;99434.09;;;16.49;nan
51849;BME280;38952;51.090;-1.832;2023-07-31T05:37:28;99447.19;;;16.70;nan
51849;BME280;38952;51.090;-1.832;2023-07-31T05:39:53;99436.63;;;16.72;nan
51849;BME280;38952;51.090;-1.832;2023-07-31T05:42:21;99443.59;;;16.78;nan
51849;BME280;38952;51.090;-1.832;2023-07-31T05:44:47;99431.88;;;16.81;nan
51849;BME280;38952;51.090;-1.832;2023-07-31T05:47:12;99451.47;;;16.97;nan
51849;BME280;38952;51.090;-1.832;2023-07-31T05:49:38;99436.38;;;16.95;nan
51849;BME280;38952;51.090;-1.832;2023-07-31T05:52:09;99441.91;;;16.95;nan
51849;BME280;38952;51.090;-1.832;2023-07-31T05:54:54;99428.91;;;16.86;nan
51849;BME280;38952;51.090;-1.832;2023-07-31T05:57:21;99436.25;;;16.82;nan
51849;BME280;38952;51.090;-1.832;2023-07-31T05:59:55;99441.63;;;16.87;nan
51849;BME280;38952;51.090;-1.832;2023-07-31T06:02:23;99432.53;;;16.78;nan
51849;BME280;38952;51.090;-1.832;2023-07-31T06:04:49;99425.09;;;16.70;nan
51849;BME280;38952;51.090;-1.832;2023-07-31T06:07:14;99427.22;;;16.64;nan
51849;BME280;38952;51.090;-1.832;2023-07-31T06:09:43;99448.81;;;16.71;nan
51849;BME280;38952;51.090;-1.832;2023-07-31T06:12:18;99422.53;;;16.65;nan
51849;BME280;38952;51.090;-1.832;2023-07-31T06:14:55;99406.34;;;16.54;nan
51849;BME280;38952;51.090;-1.832;2023-07-31T06:17:21;99395.31;;;16.54;nan
51849;BME280;38952;51.090;-1.832;2023-07-31T06:20:13;99397.19;;;16.63;nan
51849;BME280;38952;51.090;-1.832;2023-07-31T06:22:59;99422.56;;;16.95;nan
51849;BME280;38952;51.090;-1.832;2023-07-31T06:25:52;99411.25;;;16.87;nan
51849;BME280;38952;51.090;-1.832;2023-07-31T06:28:25;99414.50;;;16.89;nan
51849;BME280;38952;51.090;-1.832;2023-07-31T06:31:02;99414.16;;;16.91;nan
51849;BME280;38952;51.090;-1.832;2023-07-31T06:33:41;99410.75;;;16.85;nan
51849;BME280;38952;51.090;-1.832;2023-07-31T06:36:06;99408.44;;;16.96;nan
51849;BME280;38952;51.090;-1.832;2023-07-31T06:38:35;99433.34;;;17.17;nan
51849;BME280;38952;51.090;-1.832;2023-07-31T06:41:02;99420.78;;;17.20;nan
51849;BME280;38952;51.090;-1.832;2023-07-31T06:43:28;99434.69;;;17.53;nan
51849;BME280;38952;51.090;-1.832;2023-07-31T06:45:53;99425.66;;;17.86;nan
51849;BME280;38952;51.090;-1.832;2023-07-31T06:48:20;99405.63;;;18.23;nan
51849;BME280;38952;51.090;-1.832;2023-07-31T06:50:45;99412.72;;;18.57;nan
51849;BME280;38952;51.090;-1.832;2023-07-31T06:53:10;99419.41;;;18.69;nan
51849;BME280;38952;51.090;-1.832;2023-07-31T06:55:36;99416.66;;;18.69;nan
51849;BME280;38952;51.090;-1.832;2023-07-31T06:58:02;99413.66;;;18.49;nan
51849;BME280;38952;51.090;-1.832;2023-07-31T07:00:27;99415.69;;;18.40;nan
51849;BME280;38952;51.090;-1.832;2023-07-31T07:02:53;99412.91;;;18.27;nan
51849;BME280;38952;51.090;-1.832;2023-07-31T07:05:19;99424.16;;;18.10;nan
51849;BME280;38952;51.090;-1.832;2023-07-31T07:07:45;99398.97;;;17.90;nan
51849;BME280;38952;51.090;-1.832;2023-07-31T07:10:10;99395.31;;;17.99;nan
51849;BME280;38952;51.090;-1.832;2023-07-31T07:12:36;99403.66;;;18.23;nan
51849;BME280;38952;51.090;-1.832;2023-07-31T07:15:02;99401.44;;;18.50;nan
51849;BME280;38952;51.090;-1.832;2023-07-31T07:17:29;99410.56;;;18.88;nan
51849;BME280;38952;51.090;-1.832;2023-07-31T07:19:59;99391.97;;;19.13;nan
51849;BME280;38952;51.090;-1.832;2023-07-31T07:22:24;99389.53;;;19.24;nan
51849;BME280;38952;51.090;-1.832;2023-07-31T07:24:51;99398.56;;;19.49;nan
51849;BME280;38952;51.090;-1.832;2023-07-31T07:27:16;99378.88;;;19.66;nan
51849;BME280;38952;51.090;-1.832;2023-07-31T07:29:41;99393.97;;;19.81;nan
51849;BME280;38952;51.090;-1.832;2023-07-31T07:32:07;99411.88;;;19.84;nan
51849;BME280;38952;51.090;-1.832;2023-07-31T07:34:33;99391.59;;;19.67;nan
51849;BME280;38952;51.090;-1.832;2023-07-31T07:36:58;99389.06;;;19.62;nan
51849;BME280;38952;51.090;-1.832;2023-07-31T07:39:24;99384.91;;;19.68;nan
51849;BME280;38952;51.090;-1.832;2023-07-31T07:41:50;99384.91;;;19.68;nan
51849;BME280;38952;51.090;-1.832;2023-07-31T07:44:15;99373.09;;;19.71;nan
51849;BME280;38952;51.090;-1.832;2023-07-31T07:46:41;99378.88;;;19.79;nan
51849;BME280;38952;51.090;-1.832;2023-07-31T07:49:06;99388.53;;;19.85;nan
51849;BME280;38952;51.090;-1.832;2023-07-31T07:51:32;99368.63;;;19.95;nan
51849;BME280;38952;51.090;-1.832;2023-07-31T07:53:58;99373.41;;;20.11;nan
51849;BME280;38952;51.090;-1.832;2023-07-31T07:56:25;99365.50;;;20.13;nan
51849;BME280;38952;51.090;-1.832;2023-07-31T07:58:51;99374.84;;;20.36;nan
51849;BME280;38952;51.090;-1.832;2023-07-31T08:01:16;99360.53;;;20.66;nan
51849;BME280;38952;51.090;-1.832;2023-07-31T08:03:42;99362.06;;;20.99;nan
51849;BME280;38952;51.090;-1.832;2023-07-31T08:06:08;99355.66;;;20.79;nan
51849;BME280;38952;51.090;-1.832;2023-07-31T08:08:37;99373.81;;;21.08;nan
51849;BME280;38952;51.090;-1.832;2023-07-31T08:11:03;99362.56;;;20.85;nan
51849;BME280;38952;51.090;-1.832;2023-07-31T08:13:28;99362.59;;;20.69;nan
51849;BME280;38952;51.090;-1.832;2023-07-31T08:15:54;99358.72;;;20.58;nan
51849;BME280;38952;51.090;-1.832;2023-07-31T08:18:19;99353.44;;;20.69;nan
51849;BME280;38952;51.090;-1.832;2023-07-31T08:20:45;99366.84;;;20.99;nan
51849;BME280;38952;51.090;-1.832;2023-07-31T08:23:12;99356.84;;;21.33;nan
51849;BME280;38952;51.090;-1.832;2023-07-31T08:25:38;99363.75;;;21.39;nan
51849;BME280;38952;51.090;-1.832;2023-07-31T08:28:05;99363.78;;;21.59;nan
51849;BME280;38952;51.090;-1.832;2023-07-31T08:30:31;99387.50;;;21.72;nan
51849;BME280;38952;51.090;-1.832;2023-07-31T08:32:59;99366.41;;;21.52;nan
51849;BME280;38952;51.090;-1.832;2023-07-31T08:35:26;99367.38;;;21.24;nan
51849;BME280;38952;51.090;-1.832;2023-07-31T08:38:01;99336.47;;;20.90;nan
51849;BME280;38952;51.090;-1.832;2023-07-31T08:40:26;99361.19;;;20.63;nan
51849;BME280;38952;51.090;-1.832;2023-07-31T08:42:54;99347.16;;;20.24;nan
51849;BME280;38952;51.090;-1.832;2023-07-31T08:45:27;99358.53;;;20.19;nan
51849;BME280;38952;51.090;-1.832;2023-07-31T08:48:04;99357.06;;;19.93;nan
51849;BME280;38952;51.090;-1.832;2023-07-31T08:50:29;99356.97;;;19.90;nan
51849;BME280;38952;51.090;-1.832;2023-07-31T08:52:57;99390.28;;;20.05;nan
51849;BME280;38952;51.090;-1.832;2023-07-31T08:55:22;99386.09;;;20.12;nan
51849;BME280;38952;51.090;-1.832;2023-07-31T08:57:51;99390.22;;;20.18;nan
51849;BME280;38952;51.090;-1.832;2023-07-31T09:00:16;99386.47;;;20.26;nan
51849;BME280;38952;51.090;-1.832;2023-07-31T09:05:18;99354.03;;;20.94;nan
51849;BME280;38952;51.090;-1.832;2023-07-31T09:07:47;99365.66;;;21.35;nan
51849;BME280;38952;51.090;-1.832;2023-07-31T09:10:13;99391.31;;;21.64;nan
51849;BME280;38952;51.090;-1.832;2023-07-31T09:12:39;99388.09;;;21.62;nan
51849;BME280;38952;51.090;-1.832;2023-07-31T09:15:05;99366.13;;;21.76;nan
51849;BME280;38952;51.090;-1.832;2023-07-31T09:17:35;99341.16;;;22.26;nan
51849;BME280;38952;51.090;-1.832;2023-07-31T09:20:18;99360.59;;;22.69;nan
51849;BME280;38952;51.090;-1.832;2023-07-31T09:22:44;99363.81;;;22.25;nan
51849;BME280;38952;51.090;-1.832;2023-07-31T09:25:21;99347.28;;;21.89;nan
51849;BME280;38952;51.090;-1.832;2023-07-31T09:30:24;99343.13;;;21.79;nan
51849;BME280;38952;51.090;-1.832;2023-07-31T09:32:51;99343.72;;;21.69;nan
51849;BME280;38952;51.090;-1.832;2023-07-31T09:37:56;99347.88;;;21.59;nan
51849;BME280;38952;51.090;-1.832;2023-07-31T09:40:30;99349.59;;;21.64;nan
51849;BME280;38952;51.090;-1.832;2023-07-31T09:42:57;99354.97;;;21.37;nan
51849;BME280;38952;51.090;-1.832;2023-07-31T09:45:24;99341.84;;;21.18;nan
51849;BME280;38952;51.090;-1.832;2023-07-31T09:47:49;99349.59;;;21.09;nan
51849;BME280;38952;51.090;-1.832;2023-07-31T09:50:15;99370.53;;;20.87;nan
51849;BME280;38952;51.090;-1.832;2023-07-31T09:52:43;99377.72;;;20.56;nan
51849;BME280;38952;51.090;-1.832;2023-07-31T09:55:09;99378.59;;;20.28;nan
51849;BME280;38952;51.090;-1.832;2023-07-31T09:57:41;99376.66;;;20.00;nan
51849;BME280;38952;51.090;-1.832;2023-07-31T10:00:09;99387.41;;;19.74;nan
51849;BME280;38952;51.090;-1.832;2023-07-31T10:02:36;99391.72;;;19.30;nan
51849;BME280;38952;51.090;-1.832;2023-07-31T10:05:03;99387.81;;;19.07;nan
51849;BME280;38952;51.090;-1.832;2023-07-31T10:07:30;99355.47;;;19.11;nan
51849;BME280;38952;51.090;-1.832;2023-07-31T10:10:03;99361.75;;;19.36;nan
51849;BME280;38952;51.090;-1.832;2023-07-31T10:12:31;99320.03;;;19.45;nan
51849;BME280;38952;51.090;-1.832;2023-07-31T10:15:03;99354.81;;;19.99;nan
51849;BME280;38952;51.090;-1.832;2023-07-31T10:17:30;99332.56;;;20.27;nan
51849;BME280;38952;51.090;-1.832;2023-07-31T10:19:58;99341.69;;;20.28;nan
51849;BME280;38952;51.090;-1.832;2023-07-31T10:22:29;99378.28;;;20.01;nan
51849;BME280;38952;51.090;-1.832;2023-07-31T10:24:57;99413.28;;;19.78;nan
51849;BME280;38952;51.090;-1.832;2023-07-31T10:27:23;99388.69;;;19.35;nan
51849;BME280;38952;51.090;-1.832;2023-07-31T10:29:48;99391.03;;;19.21;nan
51849;BME280;38952;51.090;-1.832;2023-07-31T10:32:18;99406.16;;;19.24;nan
51849;BME280;38952;51.090;-1.832;2023-07-31T10:34:47;99406.53;;;19.50;nan
51849;BME280;38952;51.090;-1.832;2023-07-31T10:37:30;99420.41;;;19.91;nan
51849;BME280;38952;51.090;-1.832;2023-07-31T10:40:03;99409.59;;;20.30;nan
51849;BME280;38952;51.090;-1.832;2023-07-31T10:42:37;99401.28;;;20.62;nan
51849;BME280;38952;51.090;-1.832;2023-07-31T10:45:08;99415.91;;;20.91;nan
51849;BME280;38952;51.090;-1.832;2023-07-31T10:47:59;99403.53;;;20.88;nan
51849;BME280;38952;51.090;-1.832;2023-07-31T10:50:26;99394.38;;;20.88;nan
51849;BME280;38952;51.090;-1.832;2023-07-31T10:52:53;99387.31;;;20.74;nan
51849;BME280;38952;51.090;-1.832;2023-07-31T10:55:26;99375.63;;;20.53;nan
51849;BME280;38952;51.090;-1.832;2023-07-31T10:57:52;99394.16;;;20.17;nan
51849;BME280;38952;51.090;-1.832;2023-07-31T11:00:29;99397.94;;;19.80;nan
51849;BME280;38952;51.090;-1.832;2023-07-31T11:05:47;99397.38;;;19.62;nan
51849;BME280;38952;51.090;-1.832;2023-07-31T11:08:21;99400.13;;;19.75;nan
51849;BME280;38952;51.090;-1.832;2023-07-31T11:10:50;99411.44;;;19.82;nan
51849;BME280;38952;51.090;-1.832;2023-07-31T11:13:16;99411.44;;;19.82;nan
51849;BME280;38952;51.090;-1.832;2023-07-31T11:15:41;99411.44;;;19.82;nan
51849;BME280;38952;51.090;-1.832;2023-07-31T11:18:07;99400.63;;;19.93;nan
51849;BME280;38952;51.090;-1.832;2023-07-31T11:20:34;99390.09;;;19.98;nan
51849;BME280;38952;51.090;-1.832;2023-07-31T11:23:07;99375.31;;;19.94;nan
51849;BME280;38952;51.090;-1.832;2023-07-31T11:25:34;99370.03;;;19.89;nan
51849;BME280;38952;51.090;-1.832;2023-07-31T11:28:04;99385.50;;;19.62;nan
51849;BME280;38952;51.090;-1.832;2023-07-31T11:30:30;99384.16;;;19.43;nan
51849;BME280;38952;51.090;-1.832;2023-07-31T11:32:56;99379.03;;;19.17;nan
51849;BME280;38952;51.090;-1.832;2023-07-31T11:35:21;99377.44;;;19.04;nan
51849;BME280;38952;51.090;-1.832;2023-07-31T11:37:47;99367.75;;;18.97;nan
51849;BME280;38952;51.090;-1.832;2023-07-31T11:40:14;99371.66;;;18.96;nan
51849;BME280;38952;51.090;-1.832;2023-07-31T11:42:40;99362.22;;;18.97;nan
51849;BME280;38952;51.090;-1.832;2023-07-31T11:45:09;99366.13;;;18.84;nan
51849;BME280;38952;51.090;-1.832;2023-07-31T11:47:36;99358.63;;;18.60;nan
51849;BME280;38952;51.090;-1.832;2023-07-31T11:50:03;99347.19;;;18.37;nan
51849;BME280;38952;51.090;-1.832;2023-07-31T11:52:37;99341.66;;;18.24;nan
51849;BME280;38952;51.090;-1.832;2023-07-31T11:55:06;99342.69;;;18.20;nan
51849;BME280;38952;51.090;-1.832;2023-07-31T11:57:36;99356.38;;;18.16;nan
51849;BME280;38952;51.090;-1.832;2023-07-31T12:00:02;99350.16;;;18.19;nan
51849;BME280;38952;51.090;-1.832;2023-07-31T12:02:28;99347.75;;;18.18;nan
51849;BME280;38952;51.090;-1.832;2023-07-31T12:04:55;99323.53;;;18.14;nan
51849;BME280;38952;51.090;-1.832;2023-07-31T12:07:44;99319.75;;;18.31;nan
51849;BME280;38952;51.090;-1.832;2023-07-31T12:10:10;99320.22;;;18.58;nan
51849;BME280;38952;51.090;-1.832;2023-07-31T12:12:36;99288.13;;;18.57;nan
51849;BME280;38952;51.090;-1.832;2023-07-31T12:15:01;99295.97;;;18.80;nan
51849;BME280;38952;51.090;-1.832;2023-07-31T12:17:47;99304.69;;;19.07;nan
51849;BME280;38952;51.090;-1.832;2023-07-31T12:26:20;99307.34;;;19.44;nan
51849;BME280;38952;51.090;-1.832;2023-07-31T12:28:50;99310.97;;;19.60;nan
51849;BME280;38952;51.090;-1.832;2023-07-31T12:31:17;99317.22;;;19.57;nan
51849;BME280;38952;51.090;-1.832;2023-07-31T12:33:43;99315.00;;;19.34;nan
51849;BME280;38952;51.090;-1.832;2023-07-31T12:36:11;99313.19;;;19.26;nan
51849;BME280;38952;51.090;-1.832;2023-07-31T12:38:37;99313.72;;;19.04;nan
51849;BME280;38952;51.090;-1.832;2023-07-31T12:41:02;99298.63;;;18.89;nan
51849;BME280;38952;51.090;-1.832;2023-07-31T12:43:28;99305.09;;;18.93;nan
51849;BME280;38952;51.090;-1.832;2023-07-31T12:45:56;99309.53;;;19.10;nan
51849;BME280;38952;51.090;-1.832;2023-07-31T12:48:22;99300.81;;;18.83;nan
51849;BME280;38952;51.090;-1.832;2023-07-31T12:50:47;99327.13;;;18.64;nan
51849;BME280;38952;51.090;-1.832;2023-07-31T12:53:15;99301.28;;;18.23;nan
51849;BME280;38952;51.090;-1.832;2023-07-31T12:55:40;99319.88;;;17.89;nan
51849;BME280;38952;51.090;-1.832;2023-07-31T12:58:06;99339.84;;;17.61;nan
51849;BME280;38952;51.090;-1.832;2023-07-31T13:00:32;99362.31;;;17.39;nan
51849;BME280;38952;51.090;-1.832;2023-07-31T13:02:57;99358.09;;;17.20;nan
51849;BME280;38952;51.090;-1.832;2023-07-31T13:05:23;99344.75;;;17.01;nan
51849;BME280;38952;51.090;-1.832;2023-07-31T13:07:48;99320.97;;;16.79;nan
51849;BME280;38952;51.090;-1.832;2023-07-31T13:10:14;99330.25;;;16.45;nan
51849;BME280;38952;51.090;-1.832;2023-07-31T13:12:40;99297.06;;;16.23;nan
51849;BME280;38952;51.090;-1.832;2023-07-31T13:15:06;99291.72;;;16.27;nan
51849;BME280;38952;51.090;-1.832;2023-07-31T13:17:32;99331.09;;;16.36;nan
51849;BME280;38952;51.090;-1.832;2023-07-31T13:19:57;99322.03;;;16.36;nan
51849;BME280;38952;51.090;-1.832;2023-07-31T13:22:23;99336.50;;;16.24;nan
51849;BME280;38952;51.090;-1.832;2023-07-31T13:24:48;99329.59;;;16.09;nan
51849;BME280;38952;51.090;-1.832;2023-07-31T13:27:14;99327.31;;;16.11;nan
51849;BME280;38952;51.090;-1.832;2023-07-31T13:29:44;99323.72;;;16.19;nan
51849;BME280;38952;51.090;-1.832;2023-07-31T13:32:09;99302.97;;;16.13;nan
51849;BME280;38952;51.090;-1.832;2023-07-31T13:34:35;99310.88;;;16.23;nan